Аэропорт
Ош (UCFO)

 UCFO / OSS
ЗЦ Центральная Азия
Ош (UCFO)
Ош (UCFO)
 40.60900, 72.79330  / 2927 ft

 UCFO 251200Z 31003MPS 270V340 CAVOK 31/10 Q1011 R12/0///95 NOSIG
 TAF UCFO 250442Z 2506/2606 32003G08MPS 9999 FEW050CB TEMPO 2506/2512 25005MPS SCT050CB BKN100 BECMG 2512/2514 16005MPS 5000 FU TEMPO 2512/2518 27005MPS 2500 BR FU SCT030CB BKN080
показать схемы



2019 © VATRUS division (Privacy Policy)